Time;durP1;ratioP1;P1;durP2;ratioP2;P2;SDS_P1;SDS_P2;PMS_P1;PMS_P2;Temp;Humidity;BMP_temperature;BMP_pressure;BME280_temperature;BME280_humidity;BME280_pressure;Samples;Min_cycle;Max_cycle;Signal;HPM_P1;HPM_P2
2023/05/31 00:02:04;;;;;;;8.50;3.47;;;15.30;98.40;;;;;;4919989;29;20063;-72
2023/05/31 00:04:30;;;;;;;13.07;3.75;;;15.30;98.40;;;;;;4919123;29;20044;-72
2023/05/31 00:06:56;;;;;;;11.18;3.80;;;15.30;98.50;;;;;;4934884;29;20052;-72
2023/05/31 00:09:23;;;;;;;7.20;3.40;;;15.20;98.60;;;;;;4920529;29;20683;-72
2023/05/31 00:11:49;;;;;;;14.98;4.43;;;15.20;98.80;;;;;;4934346;29;20052;-72
2023/05/31 00:14:14;;;;;;;10.18;3.63;;;15.20;98.90;;;;;;4918750;29;20115;-72
2023/05/31 00:16:40;;;;;;;10.40;4.15;;;15.10;98.80;;;;;;4923284;29;20048;-72
2023/05/31 00:19:06;;;;;;;13.00;4.00;;;15.10;98.90;;;;;;4918789;29;20079;-72
2023/05/31 00:21:31;;;;;;;9.85;3.72;;;15.10;99.00;;;;;;4943243;29;20063;-72
2023/05/31 00:23:58;;;;;;;9.98;3.70;;;15.10;99.00;;;;;;4915705;29;20053;-72
2023/05/31 00:26:24;;;;;;;11.18;4.65;;;15.10;99.10;;;;;;4917890;29;20492;-72
2023/05/31 00:28:50;;;;;;;8.13;3.72;;;15.00;99.20;;;;;;4921233;29;20056;-72
2023/05/31 00:31:16;;;;;;;8.35;3.78;;;15.00;99.50;;;;;;4931425;29;20373;-72
2023/05/31 00:33:44;;;;;;;10.77;4.05;;;14.90;99.50;;;;;;4919898;29;20485;-72
2023/05/31 00:36:09;;;;;;;12.85;4.03;;;14.90;99.50;;;;;;4938136;29;20071;-72
2023/05/31 00:38:35;;;;;;;11.63;3.95;;;14.80;99.50;;;;;;4933973;29;20548;-72
2023/05/31 00:41:01;;;;;;;11.45;3.75;;;14.80;99.60;;;;;;4920215;29;20131;-72
2023/05/31 00:43:26;;;;;;;9.32;3.85;;;14.80;99.80;;;;;;4935656;29;20097;-72
2023/05/31 00:45:52;;;;;;;12.25;4.60;;;14.80;99.80;;;;;;4913401;29;20063;-72
2023/05/31 00:48:18;;;;;;;10.65;5.07;;;14.70;99.80;;;;;;4942503;29;20044;-72
2023/05/31 00:50:44;;;;;;;13.35;4.20;;;14.70;99.80;;;;;;4917748;29;20044;-72
2023/05/31 00:53:09;;;;;;;10.63;4.38;;;14.70;99.90;;;;;;4938857;29;20164;-72
2023/05/31 00:55:35;;;;;;;9.23;4.10;;;14.60;99.90;;;;;;4936464;29;20119;-72
2023/05/31 00:58:01;;;;;;;10.27;3.67;;;14.60;99.90;;;;;;4933778;29;20043;-72
2023/05/31 01:00:27;;;;;;;10.20;4.35;;;14.60;99.90;;;;;;4918804;29;20091;-72
2023/05/31 01:02:53;;;;;;;11.07;4.35;;;14.50;99.90;;;;;;4937337;29;20450;-72
2023/05/31 01:05:19;;;;;;;11.32;4.40;;;14.50;99.90;;;;;;4935771;29;20052;-72
2023/05/31 01:07:45;;;;;;;14.48;4.25;;;14.40;99.90;;;;;;4917973;29;20596;-72
2023/05/31 01:10:10;;;;;;;11.50;3.83;;;14.40;99.90;;;;;;4918097;29;20756;-72
2023/05/31 01:12:51;;;;;;;12.13;4.13;;;14.40;99.90;;;;;;4889062;29;20048;-72
2023/05/31 01:15:20;;;;;;;9.07;3.95;;;14.40;99.90;;;;;;4917804;29;20575;-72
2023/05/31 01:18:02;;;;;;;13.43;3.88;;;14.30;99.90;;;;;;4917970;29;20385;-72
2023/05/31 01:20:34;;;;;;;12.70;4.60;;;14.40;99.90;;;;;;4922492;29;20442;-72
2023/05/31 01:23:37;;;;;;;11.32;4.03;;;14.30;99.90;;;;;;4934877;29;20048;-71
2023/05/31 01:26:22;;;;;;;10.23;4.30;;;14.30;99.90;;;;;;4924932;29;20083;-72
2023/05/31 01:28:53;;;;;;;8.43;4.03;;;14.30;99.90;;;;;;4936314;29;20505;-72
2023/05/31 01:31:20;;;;;;;7.07;3.42;;;14.20;99.90;;;;;;4920170;29;20047;-72
2023/05/31 01:33:47;;;;;;;10.52;3.97;;;14.20;99.90;;;;;;4931764;29;20087;-72
2023/05/31 01:36:14;;;;;;;9.27;3.97;;;14.20;99.90;;;;;;4942153;29;20071;-72
2023/05/31 01:38:40;;;;;;;9.13;4.68;;;14.20;99.90;;;;;;4935316;29;20050;-72
2023/05/31 01:41:06;;;;;;;13.40;4.45;;;14.20;99.90;;;;;;4889185;29;20047;-72
2023/05/31 01:43:32;;;;;;;10.95;3.83;;;14.10;99.90;;;;;;4916490;29;20052;-72
2023/05/31 01:45:57;;;;;;;12.68;4.22;;;14.10;99.90;;;;;;4922847;29;20524;-71
2023/05/31 01:48:23;;;;;;;8.93;3.70;;;14.00;99.90;;;;;;4921096;29;20357;-71
2023/05/31 01:50:49;;;;;;;9.77;3.95;;;14.00;99.90;;;;;;4935453;29;20054;-72
2023/05/31 01:53:17;;;;;;;12.38;4.35;;;14.00;99.90;;;;;;4903557;29;20048;-71
2023/05/31 01:55:43;;;;;;;9.93;4.30;;;13.90;99.90;;;;;;4920196;29;20058;-72
2023/05/31 01:58:09;;;;;;;10.27;4.45;;;13.90;99.90;;;;;;4902817;29;20061;-72
2023/05/31 02:00:35;;;;;;;8.95;4.22;;;13.90;99.90;;;;;;4919823;29;20062;-72
2023/05/31 02:03:01;;;;;;;12.50;4.63;;;13.90;99.90;;;;;;4905529;29;20047;-72
2023/05/31 02:05:27;;;;;;;8.73;4.20;;;13.80;99.90;;;;;;4902901;29;20055;-72
2023/05/31 02:07:54;;;;;;;12.52;4.53;;;13.80;99.90;;;;;;4939937;29;20054;-72
2023/05/31 02:10:19;;;;;;;10.88;4.35;;;13.80;99.90;;;;;;4942075;29;20163;-72
2023/05/31 02:12:45;;;;;;;12.05;4.80;;;13.70;99.90;;;;;;4920046;29;20130;-72
2023/05/31 02:15:12;;;;;;;10.90;4.43;;;13.70;99.90;;;;;;4920804;29;20047;-72
2023/05/31 02:17:42;;;;;;;12.32;4.22;;;13.70;99.90;;;;;;4923559;29;20039;-72
2023/05/31 02:20:12;;;;;;;11.43;4.93;;;13.70;99.90;;;;;;4935572;29;20477;-72
2023/05/31 02:22:41;;;;;;;11.93;4.70;;;13.70;99.90;;;;;;4923126;29;20055;-72
2023/05/31 02:25:11;;;;;;;9.60;4.30;;;13.60;99.90;;;;;;4936440;29;20055;-72
2023/05/31 02:27:37;;;;;;;12.57;4.72;;;13.60;99.90;;;;;;4919480;29;20531;-72
2023/05/31 02:30:04;;;;;;;9.43;4.15;;;13.50;99.90;;;;;;4931910;29;20047;-72
2023/05/31 02:32:35;;;;;;;10.60;4.32;;;13.50;99.90;;;;;;4923415;29;20509;-72
2023/05/31 02:35:04;;;;;;;12.45;4.53;;;13.50;99.90;;;;;;4918680;29;20047;-72
2023/05/31 02:37:30;;;;;;;11.38;4.70;;;13.50;99.90;;;;;;4935051;29;20051;-72
2023/05/31 02:39:56;;;;;;;13.45;4.53;;;13.50;99.90;;;;;;4918019;29;20075;-72
2023/05/31 02:42:22;;;;;;;10.70;5.13;;;13.40;99.90;;;;;;4919250;29;20102;-72
2023/05/31 02:44:48;;;;;;;12.15;4.50;;;13.40;99.90;;;;;;4919241;29;20071;-72
2023/05/31 02:47:14;;;;;;;14.65;4.55;;;13.40;99.90;;;;;;4905920;29;20043;-72
2023/05/31 02:49:39;;;;;;;10.88;4.70;;;13.40;99.90;;;;;;4919258;29;20640;-72
2023/05/31 02:52:05;;;;;;;10.07;4.22;;;13.40;99.90;;;;;;4919143;29;20039;-72
2023/05/31 02:54:32;;;;;;;8.85;4.15;;;13.40;99.90;;;;;;4936460;29;20075;-71
2023/05/31 02:56:59;;;;;;;12.98;4.13;;;13.30;99.90;;;;;;4939814;29;20094;-71
2023/05/31 02:59:25;;;;;;;11.60;3.90;;;13.30;99.90;;;;;;4935798;29;20047;-72
2023/05/31 03:01:51;;;;;;;11.93;4.35;;;13.30;99.90;;;;;;4923808;29;20050;-72
2023/05/31 03:04:17;;;;;;;9.10;4.18;;;13.30;99.90;;;;;;4933455;29;20047;-72
2023/05/31 03:06:43;;;;;;;9.18;4.10;;;13.30;99.90;;;;;;4912609;29;20078;-72
2023/05/31 03:09:09;;;;;;;12.57;4.60;;;13.20;99.90;;;;;;4934846;29;20154;-72
2023/05/31 03:11:35;;;;;;;9.77;4.03;;;13.20;99.90;;;;;;4912978;29;20126;-72
2023/05/31 03:14:01;;;;;;;9.70;4.32;;;13.10;99.90;;;;;;4934441;29;20142;-72
2023/05/31 03:16:27;;;;;;;8.75;4.40;;;13.00;99.90;;;;;;4927956;29;20047;-72
2023/05/31 03:18:52;;;;;;;9.50;4.25;;;13.00;99.90;;;;;;4905312;29;20052;-71
2023/05/31 03:21:18;;;;;;;8.85;4.25;;;12.90;99.90;;;;;;4918691;29;20338;-71
2023/05/31 03:23:44;;;;;;;13.38;4.68;;;12.90;99.90;;;;;;4935778;29;20058;-71
2023/05/31 03:26:09;;;;;;;10.55;3.92;;;12.80;99.90;;;;;;4920705;29;20060;-72
2023/05/31 03:28:35;;;;;;;13.60;4.68;;;12.80;99.90;;;;;;4918462;29;20048;-72
2023/05/31 03:31:01;;;;;;;12.73;5.35;;;12.80;99.90;;;;;;4920961;29;20107;-71
2023/05/31 03:33:27;;;;;;;10.35;4.43;;;12.70;99.90;;;;;;4931431;29;20127;-72
2023/05/31 03:35:53;;;;;;;13.77;4.72;;;12.60;99.90;;;;;;4921184;29;20477;-72
2023/05/31 03:38:19;;;;;;;11.20;4.65;;;12.60;99.90;;;;;;4919004;29;20055;-72
2023/05/31 03:40:45;;;;;;;13.18;4.90;;;12.50;99.90;;;;;;4918563;29;20388;-71
2023/05/31 03:43:11;;;;;;;10.85;4.57;;;12.50;99.90;;;;;;4937330;29;20050;-72
2023/05/31 03:45:37;;;;;;;9.05;4.20;;;12.50;99.90;;;;;;4903426;29;20103;-73
2023/05/31 03:48:04;;;;;;;9.15;4.25;;;12.50;99.90;;;;;;4924839;29;20051;-72
2023/05/31 03:50:30;;;;;;;13.90;5.50;;;12.50;99.90;;;;;;4918212;29;20062;-72
2023/05/31 03:52:55;;;;;;;12.73;4.60;;;12.50;99.90;;;;;;4929236;29;20050;-73
2023/05/31 03:55:21;;;;;;;12.00;4.72;;;12.50;99.90;;;;;;4901111;29;20442;-72
2023/05/31 03:57:47;;;;;;;11.10;4.60;;;12.50;99.90;;;;;;4937785;29;20043;-72
2023/05/31 04:00:13;;;;;;;12.02;4.63;;;12.50;99.90;;;;;;4934043;29;20076;-72
2023/05/31 04:02:39;;;;;;;10.00;4.30;;;12.50;99.90;;;;;;4934265;29;20047;-73
2023/05/31 04:05:06;;;;;;;9.95;4.70;;;12.50;99.90;;;;;;4918702;29;20054;-72
2023/05/31 04:07:32;;;;;;;14.30;4.95;;;12.40;99.90;;;;;;4918014;29;20092;-72
2023/05/31 04:09:59;;;;;;;11.73;4.78;;;12.50;99.90;;;;;;4918773;29;20499;-73
2023/05/31 04:12:25;;;;;;;13.35;4.50;;;12.50;99.90;;;;;;4934574;29;20428;-72
2023/05/31 04:14:51;;;;;;;13.35;4.60;;;12.50;99.90;;;;;;4917992;29;20131;-73
2023/05/31 04:17:16;;;;;;;16.23;4.82;;;12.50;99.90;;;;;;4906775;29;20084;-73
2023/05/31 04:19:42;;;;;;;13.15;4.63;;;12.50;99.90;;;;;;4918130;29;20774;-73
2023/05/31 04:22:08;;;;;;;12.65;4.57;;;12.50;99.90;;;;;;4937399;29;20051;-72
2023/05/31 04:24:34;;;;;;;9.93;4.53;;;12.50;99.90;;;;;;4938629;29;20055;-72
2023/05/31 04:27:03;;;;;;;12.90;4.65;;;12.50;99.90;;;;;;4920876;29;20061;-73
2023/05/31 04:29:29;;;;;;;11.15;4.78;;;12.50;99.90;;;;;;4901374;29;20041;-73
2023/05/31 04:31:55;;;;;;;15.15;4.60;;;12.60;99.90;;;;;;4919022;29;20044;-72
2023/05/31 04:34:21;;;;;;;10.40;4.70;;;12.60;99.90;;;;;;4898230;29;20052;-72
2023/05/31 04:36:48;;;;;;;10.27;4.53;;;12.60;99.90;;;;;;4914295;29;20048;-72
2023/05/31 04:39:19;;;;;;;8.23;4.55;;;12.60;99.90;;;;;;4915058;29;20060;-72
2023/05/31 04:41:45;;;;;;;11.23;5.10;;;12.70;99.90;;;;;;4919185;29;20914;-73
2023/05/31 04:44:11;;;;;;;13.20;5.10;;;12.70;99.90;;;;;;4899374;29;20044;-72
2023/05/31 04:46:40;;;;;;;12.07;5.38;;;12.70;99.90;;;;;;4899823;29;20458;-72
2023/05/31 04:49:06;;;;;;;9.45;4.13;;;12.80;99.90;;;;;;4917537;29;20080;-72
2023/05/31 04:51:32;;;;;;;11.82;4.72;;;12.80;99.90;;;;;;4914709;29;20044;-72
2023/05/31 04:53:59;;;;;;;14.00;4.53;;;12.80;99.90;;;;;;4899898;29;20075;-72
2023/05/31 04:56:25;;;;;;;8.23;4.10;;;12.80;99.90;;;;;;4899264;29;20087;-72
2023/05/31 04:58:51;;;;;;;10.98;4.80;;;12.90;99.90;;;;;;4914501;29;20067;-72
2023/05/31 05:01:17;;;;;;;12.38;4.70;;;12.90;99.90;;;;;;4915390;29;20045;-72
2023/05/31 05:03:43;;;;;;;8.35;4.22;;;12.90;99.90;;;;;;4917375;29;20052;-73
2023/05/31 05:06:15;;;;;;;11.50;4.88;;;12.90;99.90;;;;;;4914250;29;20178;-72
2023/05/31 05:08:42;;;;;;;8.75;4.57;;;13.00;99.90;;;;;;4910791;29;20052;-72
2023/05/31 05:11:08;;;;;;;10.43;4.65;;;13.00;99.90;;;;;;4919778;29;20036;-73
2023/05/31 05:13:34;;;;;;;8.63;4.10;;;13.10;99.90;;;;;;4899114;29;20119;-73
2023/05/31 05:16:00;;;;;;;9.93;4.60;;;13.10;99.90;;;;;;4914248;29;20083;-72
2023/05/31 05:18:26;;;;;;;11.30;4.28;;;13.10;99.90;;;;;;4904022;29;20041;-72
2023/05/31 05:20:52;;;;;;;9.90;3.97;;;13.20;99.90;;;;;;4898898;29;20482;-72
2023/05/31 05:23:18;;;;;;;12.88;4.10;;;13.30;99.90;;;;;;4882793;29;20063;-72
2023/05/31 05:25:44;;;;;;;10.05;3.58;;;13.30;99.90;;;;;;4915104;29;20041;-73
2023/05/31 05:28:10;;;;;;;10.05;3.80;;;13.30;99.90;;;;;;4925886;29;20048;-73
2023/05/31 05:30:36;;;;;;;7.57;3.40;;;13.40;99.90;;;;;;4932792;29;20654;-72
2023/05/31 05:33:02;;;;;;;11.68;3.78;;;13.40;99.90;;;;;;4919927;29;20123;-72
2023/05/31 05:35:28;;;;;;;6.85;3.47;;;13.50;99.90;;;;;;4898894;29;20598;-72
2023/05/31 05:37:53;;;;;;;8.45;3.58;;;13.50;99.90;;;;;;4939474;29;20084;-72
2023/05/31 05:40:19;;;;;;;8.50;3.50;;;13.50;99.90;;;;;;4933054;29;20051;-72
2023/05/31 05:42:45;;;;;;;7.28;3.25;;;13.60;99.90;;;;;;4936289;29;20088;-72
2023/05/31 05:45:11;;;;;;;9.68;3.35;;;13.60;99.90;;;;;;4929759;29;20083;-73
2023/05/31 05:47:37;;;;;;;8.10;2.90;;;13.70;99.90;;;;;;4910150;29;20485;-73
2023/05/31 05:50:03;;;;;;;7.47;3.20;;;13.70;99.90;;;;;;4918524;29;20055;-73
2023/05/31 05:52:29;;;;;;;7.35;3.17;;;13.80;99.90;;;;;;4920636;29;20036;-73
2023/05/31 05:54:56;;;;;;;7.30;2.83;;;13.90;99.90;;;;;;4916400;29;20123;-73
2023/05/31 05:57:24;;;;;;;7.88;3.08;;;13.90;99.90;;;;;;4932534;29;20055;-72
2023/05/31 05:59:50;;;;;;;6.85;2.75;;;13.90;99.90;;;;;;4908764;29;20055;-72
2023/05/31 06:02:16;;;;;;;8.75;2.80;;;14.00;99.90;;;;;;4934927;29;20056;-73
2023/05/31 06:04:42;;;;;;;9.38;2.20;;;14.00;99.90;;;;;;4916308;29;20055;-72
2023/05/31 06:07:08;;;;;;;6.85;2.30;;;14.10;99.90;;;;;;4915260;29;20080;-72
2023/05/31 06:09:33;;;;;;;12.20;2.63;;;14.10;99.90;;;;;;4920064;29;20485;-73
2023/05/31 06:12:00;;;;;;;9.40;2.63;;;14.20;99.90;;;;;;4915758;29;20061;-72
2023/05/31 06:14:25;;;;;;;5.50;2.20;;;14.20;99.90;;;;;;4916026;29;20058;-73
2023/05/31 06:16:51;;;;;;;7.07;2.50;;;14.30;99.90;;;;;;4921213;29;20040;-72
2023/05/31 06:19:17;;;;;;;5.05;2.28;;;14.30;99.90;;;;;;4919068;29;20051;-72
2023/05/31 06:21:43;;;;;;;7.82;2.53;;;14.40;99.90;;;;;;4904731;29;20160;-72
2023/05/31 06:24:08;;;;;;;8.50;2.70;;;14.40;99.90;;;;;;4917684;29;20854;-72
2023/05/31 06:26:35;;;;;;;6.43;2.63;;;14.50;99.90;;;;;;4916180;29;20052;-73
2023/05/31 06:29:01;;;;;;;5.53;2.78;;;14.50;99.90;;;;;;4919537;29;20062;-74
2023/05/31 06:31:27;;;;;;;5.07;2.00;;;14.60;99.90;;;;;;4934130;29;20047;-72
2023/05/31 06:33:53;;;;;;;9.50;2.60;;;14.60;99.90;;;;;;4899474;29;20052;-73
2023/05/31 06:36:18;;;;;;;8.93;2.90;;;14.60;99.90;;;;;;4918600;29;20047;-73
2023/05/31 06:38:46;;;;;;;6.60;2.53;;;14.70;99.90;;;;;;4917806;29;20043;-73
2023/05/31 06:41:12;;;;;;;10.98;2.80;;;14.70;99.90;;;;;;4924500;29;20052;-73
2023/05/31 06:43:38;;;;;;;8.23;2.60;;;14.80;99.90;;;;;;4918881;29;20555;-73
2023/05/31 06:46:07;;;;;;;6.93;2.70;;;14.90;99.90;;;;;;4919334;29;20476;-73
2023/05/31 06:48:33;;;;;;;8.23;2.53;;;14.90;99.90;;;;;;4885682;29;20059;-73
2023/05/31 06:50:59;;;;;;;7.65;2.70;;;15.00;99.90;;;;;;4923706;29;20047;-72
2023/05/31 06:53:24;;;;;;;8.25;2.90;;;15.00;99.90;;;;;;4919192;29;20055;-73
2023/05/31 06:55:50;;;;;;;6.15;2.88;;;15.10;99.90;;;;;;4919059;29;20050;-72
2023/05/31 06:58:16;;;;;;;6.50;2.92;;;15.10;99.90;;;;;;4927891;29;20075;-72
2023/05/31 07:00:42;;;;;;;9.93;3.10;;;15.20;99.90;;;;;;4937445;29;20078;-73
2023/05/31 07:03:07;;;;;;;7.65;2.42;;;15.20;99.90;;;;;;4921535;29;20111;-72
2023/05/31 07:05:35;;;;;;;5.95;2.30;;;15.30;99.90;;;;;;4919013;29;20055;-73
2023/05/31 07:08:01;;;;;;;8.88;2.65;;;15.40;99.90;;;;;;4933762;29;20074;-73
2023/05/31 07:10:27;;;;;;;5.85;2.63;;;15.40;99.70;;;;;;4920767;29;20047;-73
2023/05/31 07:12:53;;;;;;;7.22;2.58;;;15.50;99.30;;;;;;4905938;29;20051;-73
2023/05/31 07:15:19;;;;;;;6.88;2.45;;;15.60;99.50;;;;;;4935406;29;20071;-72
2023/05/31 07:17:45;;;;;;;6.07;2.38;;;15.60;99.40;;;;;;4934634;29;20085;-73
2023/05/31 07:20:11;;;;;;;6.68;2.15;;;15.70;99.50;;;;;;4934906;29;20079;-73
2023/05/31 07:22:37;;;;;;;10.77;2.53;;;15.70;99.30;;;;;;4937900;29;20082;-73
2023/05/31 07:25:04;;;;;;;5.82;2.22;;;15.80;99.40;;;;;;4919068;29;20059;-73
2023/05/31 07:27:30;;;;;;;6.32;2.20;;;15.80;99.40;;;;;;4918621;29;20047;-72
2023/05/31 07:29:56;;;;;;;4.93;1.83;;;15.90;98.90;;;;;;4935341;29;20043;-72
2023/05/31 07:32:22;;;;;;;6.75;2.30;;;15.90;98.40;;;;;;4918556;29;20057;-73
2023/05/31 07:34:47;;;;;;;7.47;2.35;;;16.00;98.20;;;;;;4919142;29;20094;-73
2023/05/31 07:37:13;;;;;;;5.78;2.20;;;16.00;97.80;;;;;;4917207;29;20047;-73
2023/05/31 07:39:39;;;;;;;6.40;2.33;;;16.10;98.20;;;;;;4934511;29;20043;-73
2023/05/31 07:42:05;;;;;;;4.82;1.90;;;16.10;98.30;;;;;;4922366;29;20638;-73
2023/05/31 07:44:31;;;;;;;9.80;4.20;;;16.20;98.20;;;;;;4937085;29;20043;-72
2023/05/31 07:46:57;;;;;;;7.75;3.42;;;16.20;97.20;;;;;;4939426;29;20043;-73
2023/05/31 07:49:22;;;;;;;5.90;2.45;;;16.30;97.60;;;;;;4918552;29;20068;-73
2023/05/31 07:51:48;;;;;;;7.57;2.10;;;16.30;97.10;;;;;;4948574;29;20047;-73
2023/05/31 07:54:14;;;;;;;7.43;2.00;;;16.40;96.90;;;;;;4920707;29;20043;-73
2023/05/31 07:56:40;;;;;;;7.15;2.17;;;16.50;97.10;;;;;;4920712;29;20043;-73
2023/05/31 07:59:06;;;;;;;7.97;1.98;;;16.60;97.40;;;;;;4929512;29;20043;-73
2023/05/31 08:01:33;;;;;;;8.48;2.20;;;16.60;97.80;;;;;;4916017;29;20052;-73
2023/05/31 08:04:12;;;;;;;5.15;1.90;;;16.70;96.40;;;;;;4905223;29;20047;-73
2023/05/31 08:06:37;;;;;;;5.93;2.53;;;16.80;96.50;;;;;;4908204;29;20055;-73
2023/05/31 08:09:07;;;;;;;5.93;1.95;;;16.80;96.50;;;;;;4951371;29;20056;-73
2023/05/31 08:11:35;;;;;;;7.95;2.10;;;16.80;96.60;;;;;;4924870;29;20134;-73
2023/05/31 08:14:05;;;;;;;7.82;2.53;;;17.00;96.20;;;;;;4940652;29;20430;-73
2023/05/31 08:16:31;;;;;;;9.68;2.55;;;17.00;96.70;;;;;;4942514;29;20047;-73
2023/05/31 08:18:57;;;;;;;4.88;2.15;;;17.20;94.90;;;;;;4937222;29;20059;-73
2023/05/31 08:21:24;;;;;;;2.97;1.77;;;17.20;94.00;;;;;;4890522;29;20054;-72
2023/05/31 08:23:51;;;;;;;5.55;1.90;;;17.30;94.80;;;;;;4927885;29;20380;-73
2023/05/31 08:26:16;;;;;;;8.15;2.22;;;17.30;94.70;;;;;;4920330;29;20062;-74
2023/05/31 08:28:42;;;;;;;3.92;1.95;;;17.30;94.50;;;;;;4928104;29;20063;-74
2023/05/31 08:31:08;;;;;;;5.53;2.15;;;17.40;94.60;;;;;;4908613;29;20122;-73
2023/05/31 08:33:34;;;;;;;4.35;1.80;;;17.60;94.80;;;;;;4921393;29;20453;-73
2023/05/31 08:36:00;;;;;;;7.85;2.17;;;17.70;94.00;;;;;;4921483;29;20750;-74
2023/05/31 08:38:27;;;;;;;6.97;2.38;;;17.80;94.10;;;;;;4921399;29;20428;-74
2023/05/31 08:40:52;;;;;;;5.45;2.20;;;17.80;94.20;;;;;;4919867;29;21698;-74
2023/05/31 08:43:21;;;;;;;8.13;2.30;;;17.90;95.00;;;;;;4936707;29;20051;-74
2023/05/31 08:45:49;;;;;;;8.80;2.03;;;17.90;95.40;;;;;;4905771;29;20066;-73
2023/05/31 08:48:21;;;;;;;;;;;18.10;95.50;;;;;;4937180;29;20051;-73
2023/05/31 08:50:48;;;;;;;7.45;2.13;;;18.20;94.80;;;;;;4937158;29;20009;-73
2023/05/31 08:53:16;;;;;;;6.65;1.95;;;18.30;94.80;;;;;;4938626;29;20044;-73
2023/05/31 08:55:44;;;;;;;3.35;1.65;;;18.40;92.60;;;;;;4921624;29;20107;-73
2023/05/31 08:58:10;;;;;;;5.77;1.90;;;18.30;91.90;;;;;;4936692;29;20244;-73
2023/05/31 09:00:36;;;;;;;5.90;1.95;;;18.30;91.60;;;;;;4924717;29;20291;-73
2023/05/31 09:03:03;;;;;;;5.57;2.10;;;18.40;91.40;;;;;;4926554;29;20059;-73
2023/05/31 09:05:29;;;;;;;5.28;1.98;;;18.40;90.00;;;;;;4920376;29;20047;-74
2023/05/31 09:07:56;;;;;;;7.55;1.92;;;18.40;90.70;;;;;;4919808;29;20532;-73
2023/05/31 09:10:22;;;;;;;5.72;1.80;;;18.60;88.90;;;;;;4909147;29;20044;-73
2023/05/31 09:12:47;;;;;;;7.53;2.13;;;18.60;88.20;;;;;;4928298;29;20158;-73
2023/05/31 09:15:16;;;;;;;5.20;1.90;;;18.60;89.20;;;;;;4936629;29;20044;-73
2023/05/31 09:17:45;;;;;;;8.85;1.98;;;18.60;90.20;;;;;;4921396;29;20052;-74
2023/05/31 09:20:11;;;;;;;4.88;1.70;;;18.60;89.50;;;;;;4920689;29;20520;-74
2023/05/31 09:22:37;;;;;;;6.68;2.13;;;18.60;88.80;;;;;;4924945;29;20058;-74
2023/05/31 09:25:04;;;;;;;4.95;1.85;;;18.70;90.10;;;;;;4875298;29;20056;-74
2023/05/31 09:27:37;;;;;;;6.10;2.00;;;18.70;89.00;;;;;;4909785;29;20083;-74
2023/05/31 09:30:06;;;;;;;8.18;2.20;;;18.90;90.30;;;;;;4947776;29;20062;-73
2023/05/31 09:32:34;;;;;;;4.95;2.00;;;19.00;89.30;;;;;;4940822;29;20043;-74
2023/05/31 09:35:24;;;;;;;7.55;2.00;;;19.00;90.00;;;;;;4920548;29;20040;-73
2023/05/31 09:37:51;;;;;;;8.40;2.00;;;19.30;88.60;;;;;;4922195;29;20075;-74
2023/05/31 09:40:26;;;;;;;7.07;1.60;;;19.30;90.20;;;;;;4937027;29;20079;-74
2023/05/31 09:42:53;;;;;;;5.10;2.30;;;19.40;89.50;;;;;;4924291;29;20475;-73
2023/05/31 09:45:19;;;;;;;7.63;1.88;;;19.50;89.00;;;;;;4905758;29;20048;-74
2023/05/31 09:47:45;;;;;;;8.85;2.13;;;19.60;89.70;;;;;;4939459;29;20051;-74
2023/05/31 09:50:11;;;;;;;5.45;1.70;;;19.70;87.90;;;;;;4921813;29;20078;-74
2023/05/31 09:52:38;;;;;;;5.03;1.73;;;19.80;84.90;;;;;;4906786;29;20539;-74
2023/05/31 09:55:08;;;;;;;6.47;2.33;;;19.90;84.20;;;;;;4920876;29;20107;-74
2023/05/31 09:57:40;;;;;;;6.82;1.80;;;19.90;83.70;;;;;;4928560;29;20048;-74
2023/05/31 10:00:14;;;;;;;8.65;2.15;;;20.20;85.10;;;;;;4919672;29;20047;-74
2023/05/31 10:02:42;;;;;;;7.70;2.08;;;20.20;87.10;;;;;;4919550;29;20055;-74
2023/05/31 10:05:09;;;;;;;5.05;1.95;;;20.40;86.80;;;;;;4900995;29;20044;-74
2023/05/31 10:07:36;;;;;;;6.57;2.05;;;20.50;83.10;;;;;;4920215;29;20051;-74
2023/05/31 10:10:02;;;;;;;5.80;1.85;;;20.60;85.70;;;;;;4936567;29;20048;-73
2023/05/31 10:12:28;;;;;;;7.85;2.13;;;20.70;84.80;;;;;;4919694;29;20488;-74
2023/05/31 10:14:58;;;;;;;5.10;1.58;;;20.80;83.00;;;;;;4919639;29;20465;-73
2023/05/31 10:17:24;;;;;;;6.68;1.92;;;20.70;78.80;;;;;;4907125;29;20484;-74
2023/05/31 10:19:54;;;;;;;7.13;2.13;;;20.60;78.10;;;;;;4920562;29;20083;-73
2023/05/31 10:22:19;;;;;;;5.72;1.90;;;20.70;78.60;;;;;;4940447;29;20047;-73
2023/05/31 10:24:54;;;;;;;8.65;1.90;;;20.80;78.40;;;;;;4918924;29;20384;-74
2023/05/31 10:27:29;;;;;;;5.18;1.42;;;20.90;78.60;;;;;;4929216;29;20130;-74
2023/05/31 10:30:04;;;;;;;3.65;1.67;;;21.00;78.40;;;;;;4936976;29;20040;-74
2023/05/31 10:32:33;;;;;;;6.72;1.80;;;21.00;77.40;;;;;;4935614;29;20556;-74
2023/05/31 10:34:58;;;;;;;;;;;21.00;78.30;;;;;;4931411;29;20499;-74
2023/05/31 10:37:24;;;;;;;8.40;1.92;;;21.10;75.10;;;;;;4940159;29;19914;-74
2023/05/31 10:40:18;;;;;;;4.75;1.60;;;21.40;74.90;;;;;;4937223;29;20139;-74
2023/05/31 10:42:59;;;;;;;6.88;1.65;;;21.20;71.00;;;;;;4897183;29;20158;-73
2023/05/31 10:45:26;;;;;;;5.45;1.60;;;21.20;73.10;;;;;;4918313;29;20123;-73
2023/05/31 10:48:13;;;;;;;5.47;1.80;;;21.20;70.40;;;;;;4924374;29;20039;-73
2023/05/31 10:50:52;;;;;;;7.30;1.63;;;21.20;70.60;;;;;;4933913;29;20044;-73
2023/05/31 10:53:18;;;;;;;5.80;1.70;;;21.40;73.50;;;;;;4922581;29;20048;-73
2023/05/31 10:55:47;;;;;;;5.40;1.42;;;21.50;72.40;;;;;;4919030;29;20043;-73
2023/05/31 10:58:28;;;;;;;5.78;1.73;;;21.50;66.30;;;;;;4918635;29;20051;-73
2023/05/31 11:00:57;;;;;;;3.80;1.50;;;21.40;68.30;;;;;;4934921;29;20051;-73
2023/05/31 11:03:23;;;;;;;3.40;1.50;;;21.50;65.60;;;;;;4923033;29;20056;-73
2023/05/31 11:05:56;;;;;;;5.75;1.77;;;21.60;69.30;;;;;;4919744;29;20055;-73
2023/05/31 11:08:24;;;;;;;6.47;1.90;;;21.90;70.30;;;;;;4912290;29;20075;-73
2023/05/31 11:10:49;;;;;;;3.15;1.65;;;22.10;72.40;;;;;;4918467;29;20078;-73
2023/05/31 11:13:16;;;;;;;6.15;1.48;;;22.30;69.40;;;;;;4938403;29;20457;-73
2023/05/31 11:15:45;;;;;;;3.80;1.50;;;22.30;66.00;;;;;;4919297;29;20051;-73
2023/05/31 11:18:26;;;;;;;3.63;1.40;;;22.20;66.80;;;;;;4924107;29;20151;-73
2023/05/31 11:20:53;;;;;;;4.35;1.92;;;22.20;66.30;;;;;;4913175;29;20401;-73
2023/05/31 11:23:19;;;;;;;4.95;1.92;;;22.20;65.50;;;;;;4918639;29;20086;-73
2023/05/31 11:26:03;;;;;;;4.47;1.70;;;22.30;64.60;;;;;;4933869;29;20091;-73
2023/05/31 11:28:29;;;;;;;6.10;1.65;;;22.40;66.70;;;;;;4915263;29;20056;-73
2023/05/31 11:30:55;;;;;;;6.05;1.70;;;22.60;68.40;;;;;;4934593;29;20047;-73
2023/05/31 11:33:22;;;;;;;8.75;1.60;;;22.70;67.90;;;;;;4923462;29;20115;-73
2023/05/31 11:35:48;;;;;;;6.25;1.50;;;23.00;65.30;;;;;;4924198;29;20046;-73
2023/05/31 11:38:15;;;;;;;4.03;1.45;;;23.00;62.90;;;;;;4943449;29;20047;-73
2023/05/31 11:40:41;;;;;;;2.95;1.40;;;23.00;61.10;;;;;;4921123;29;20043;-73
2023/05/31 11:43:07;;;;;;;4.20;1.95;;;22.80;60.60;;;;;;4941041;29;20475;-73
2023/05/31 11:45:33;;;;;;;4.03;1.70;;;22.70;60.60;;;;;;4923085;29;20048;-73
2023/05/31 11:48:29;;;;;;;9.65;1.90;;;22.80;63.60;;;;;;4942857;29;20043;-73
2023/05/31 11:50:55;;;;;;;5.32;1.65;;;23.10;62.10;;;;;;4936563;29;20361;-73
2023/05/31 11:53:21;;;;;;;4.15;1.52;;;23.20;62.70;;;;;;4904451;29;20132;-73
2023/05/31 11:55:50;;;;;;;3.22;1.38;;;23.30;62.50;;;;;;4889548;29;20200;-73
2023/05/31 11:58:18;;;;;;;3.88;1.63;;;23.50;60.10;;;;;;4920107;29;20460;-73
2023/05/31 12:00:47;;;;;;;2.65;1.50;;;23.60;60.40;;;;;;4920042;29;20062;-73
2023/05/31 12:03:16;;;;;;;4.55;1.85;;;23.50;57.70;;;;;;4918481;29;20473;-73
2023/05/31 12:05:48;;;;;;;3.00;1.40;;;23.40;60.50;;;;;;4905751;29;20060;-74
2023/05/31 12:08:14;;;;;;;5.55;1.67;;;23.60;57.20;;;;;;4919552;29;20051;-74
2023/05/31 12:10:41;;;;;;;4.35;1.58;;;23.40;57.40;;;;;;4935472;29;20410;-74
2023/05/31 12:13:07;;;;;;;3.10;1.27;;;23.50;59.30;;;;;;4936948;29;20044;-74
2023/05/31 12:15:32;;;;;;;5.75;1.77;;;23.40;57.00;;;;;;4921357;29;20059;-74
2023/05/31 12:17:59;;;;;;;4.47;1.60;;;23.50;59.70;;;;;;4919385;29;20051;-74
2023/05/31 12:20:28;;;;;;;6.63;1.25;;;23.70;60.80;;;;;;4919339;29;20098;-74
2023/05/31 12:23:12;;;;;;;3.85;1.60;;;23.60;57.70;;;;;;4920557;29;20079;-74
2023/05/31 12:25:45;;;;;;;4.20;1.60;;;23.80;60.10;;;;;;4920074;29;20052;-74
2023/05/31 12:28:11;;;;;;;2.53;1.02;;;24.00;55.90;;;;;;4933333;29;20115;-73
2023/05/31 12:30:44;;;;;;;4.47;1.38;;;24.10;58.20;;;;;;4936755;29;20043;-74
2023/05/31 12:33:11;;;;;;;3.00;1.48;;;24.10;56.10;;;;;;4900588;29;20050;-73
2023/05/31 12:35:44;;;;;;;5.35;1.60;;;23.70;53.70;;;;;;4934505;29;20047;-74
2023/05/31 12:38:10;;;;;;;3.08;1.45;;;23.50;54.30;;;;;;4905958;29;20044;-73
2023/05/31 12:40:40;;;;;;;2.95;1.40;;;23.70;55.90;;;;;;4934744;29;20151;-74
2023/05/31 12:43:06;;;;;;;4.13;1.60;;;23.90;56.00;;;;;;4927054;29;20582;-74
2023/05/31 12:45:32;;;;;;;3.42;1.50;;;24.10;56.20;;;;;;4935916;29;20071;-74